Cap Portland — A8MQ9 — position and weather

sailwx.info

Track history (hours):
 
Tides and Currents Weather Stations Pressure Air Temp Water Temp Dewpoint Dewpoint Depression Visibility Wind Speed Wind Dir Waves Ship Positions

Cap Portland

Last reported at 2018-Apr-24 02:39 UTC. Time now 2018-Apr-24 16:36 UTC.
Position N 36°51' E 000°00'.

Length 186 m; beam 30 m; draft 11.3 m.

Type: Ship (hazmat cat A). MMSI: 636016646.

Date/timePositionNaut miles runAvg speedWind from/ knotsBaromVisibWave heightAir tempDewpointWater temp
2018-Apr-24 02:39N 36°51' E 000°00'215.2
2018-Apr-24 02:30N 36°51' E 000°03'2415.5
2018-Apr-24 00:58N 36°57' E 000°32'816.1
2018-Apr-24 00:28N 36°59' E 000°41'816.4
2018-Apr-24 00:00N 37°01' E 000°51'816.4
2018-Apr-23 23:30N 37°02' E 001°01'816.2
2018-Apr-23 23:00N 37°04' E 001°11'916.3
2018-Apr-23 22:26N 37°06' E 001°22'1416.2
2018-Apr-23 21:35N 37°10' E 001°39'116.2
2018-Apr-23 21:31N 37°10' E 001°40'816.2
2018-Apr-23 21:01N 37°12' E 001°50'1916.2
2018-Apr-23 19:51N 37°16' E 002°13'1116.6
2018-Apr-23 19:12N 37°19' E 002°26'316.5
2018-Apr-23 19:01N 37°19' E 002°30'816.5
2018-Apr-23 18:31N 37°21' E 002°40'916.5
2018-Apr-23 17:59N 37°23' E 002°51'816.5
2018-Apr-23 17:30N 37°25' E 003°01'816.4
2018-Apr-23 17:00N 37°27' E 003°11'816.4
2018-Apr-23 16:30N 37°29' E 003°21'916.5
2018-Apr-23 15:59N 37°31' E 003°31'816.6
2018-Apr-23 15:30N 37°33' E 003°41'916.3
2018-Apr-23 14:58N 37°35' E 003°52'816.3
2018-Apr-23 14:29N 37°36' E 004°01'1116.2
2018-Apr-23 13:49N 37°40' E 004°14'816.0
2018-Apr-23 13:21N 37°41' E 004°24'816.1
2018-Apr-23 12:52N 37°42' E 004°33'716.2
2018-Apr-23 12:28N 37°44' E 004°41'816.3
2018-Apr-23 12:00N 37°46' E 004°51'1116.1
2018-Apr-23 11:18N 37°48' E 005°05'515.8
2018-Apr-23 11:00N 37°49' E 005°10'16016.0
2018-Apr-23 01:02N 38°26' E 008°28'216.7
2018-Apr-23 00:56N 38°27' E 008°30'716.7
2018-Apr-23 00:30N 38°28' E 008°39'816.3
2018-Apr-23 00:00N 38°30' E 008°49'816.4
2018-Apr-22 23:30N 38°32' E 008°59'816.6
2018-Apr-22 22:59N 38°35' E 009°09'816.2
2018-Apr-22 22:31N 38°39' E 009°18'816.3
2018-Apr-22 22:01N 38°42' E 009°28'816.2
2018-Apr-22 21:31N 38°45' E 009°37'816.0
2018-Apr-22 21:00N 38°49' E 009°47'816.0
2018-Apr-22 20:30N 38°52' E 009°56'6916.2
2018-Apr-22 16:13N 39°22' E 011°17'516.1
2018-Apr-22 15:56N 39°24' E 011°22'716.0
2018-Apr-22 15:31N 39°26' E 011°30'815.9
2018-Apr-22 14:59N 39°30' E 011°40'9216.5
2018-Apr-22 09:24N 40°09' E 013°29'816.4
2018-Apr-22 08:55N 40°12' E 013°38'2316.6
2018-Apr-22 07:31N 40°22' E 014°06'816.7
2018-Apr-22 07:01N 40°26' E 014°16'816.9
2018-Apr-22 06:31N 40°29' E 014°26'917.0
2018-Apr-22 06:00N 40°33' E 014°36'5 0.3
2018-Apr-21 15:38N 40°36' E 014°41'212.5
2018-Apr-21 15:27N 40°35' E 014°39'714.3
2018-Apr-21 14:57N 40°33' E 014°30'714.5
2018-Apr-21 14:30N 40°32' E 014°21'611.7
2018-Apr-21 14:00N 40°36' E 014°16'713.8
2018-Apr-21 13:30N 40°43' E 014°17'612.4
2018-Apr-21 13:00N 40°50' E 014°17'1 1.8
2018-Apr-21 12:29N 40°50' E 014°17'0 0.0
2018-Apr-21 11:59N 40°50' E 014°17'0 0.0
2018-Apr-21 11:29N 40°50' E 014°17'0 0.0
2018-Apr-21 10:59N 40°50' E 014°17'0 0.0
2018-Apr-21 10:29N 40°50' E 014°17'0 0.0
2018-Apr-21 09:56N 40°50' E 014°17'0 0.0
2018-Apr-21 09:29N 40°50' E 014°17'0 0.0
2018-Apr-21 08:53N 40°50' E 014°17'0 0.0
2018-Apr-21 08:23N 40°50' E 014°17'0 0.0
2018-Apr-21 07:53N 40°50' E 014°17'0 0.0
2018-Apr-21 07:23N 40°50' E 014°17'0 0.0
2018-Apr-21 06:53N 40°50' E 014°17'0 0.0
2018-Apr-21 06:26N 40°50' E 014°17'0 0.0
2018-Apr-21 05:53N 40°50' E 014°17'0 0.0
2018-Apr-21 05:26N 40°50' E 014°17'0 0.0
2018-Apr-21 05:00N 40°50' E 014°17'2 3.3
2018-Apr-21 04:30N 40°49' E 014°17'2 4.5
2018-Apr-21 04:00N 40°47' E 014°17'5 9.5
2018-Apr-21 03:30N 40°44' E 014°12'5 9.8
2018-Apr-21 03:00N 40°41' E 014°07'510.8
2018-Apr-21 02:30N 40°38' E 014°01'510.5
2018-Apr-21 02:00N 40°37' E 013°54'510.2
2018-Apr-21 01:30N 40°37' E 013°47'510.4
2018-Apr-21 01:00N 40°38' E 013°41'510.5
2018-Apr-21 00:30N 40°40' E 013°34'510.7
2018-Apr-21 00:00N 40°41' E 013°27'510.4
2018-Apr-20 23:30N 40°43' E 013°21'710.5
2018-Apr-20 22:49N 40°44' E 013°11'510.8
2018-Apr-20 22:21N 40°46' E 013°05'2710.0
2018-Apr-20 19:37N 41°01' E 012°35'310.5
2018-Apr-20 19:22N 41°04' E 012°33'410.7
2018-Apr-20 19:00N 41°07' E 012°31'152 3.9
2018-Apr-19 04:30N 42°47' E 009°58'1019.4
2018-Apr-19 04:00N 42°57' E 010°02'1019.6
2018-Apr-19 03:30N 43°06' E 010°04'1019.6
2018-Apr-19 03:00N 43°16' E 010°08'1019.5
2018-Apr-19 02:30N 43°25' E 010°10'714.5
2018-Apr-19 02:01N 43°32' E 010°15'3 6.4
2018-Apr-19 01:31N 43°34' E 010°18'1 1.0
2018-Apr-19 00:59N 43°34' E 010°18'0 0.0
2018-Apr-19 00:29N 43°34' E 010°18'0 0.1
2018-Apr-18 23:59N 43°35' E 010°18'0 0.1
2018-Apr-18 23:29N 43°34' E 010°18'0 0.0
2018-Apr-18 22:59N 43°34' E 010°18'0 0.0
2018-Apr-18 22:26N 43°34' E 010°18'0 0.0
2018-Apr-18 21:59N 43°34' E 010°18'0 0.0
2018-Apr-18 21:20N 43°34' E 010°18'0 0.0
2018-Apr-18 20:56N 43°34' E 010°18'0 0.0
2018-Apr-18 20:29N 43°34' E 010°18'0 0.0
2018-Apr-18 19:59N 43°34' E 010°18'0 0.0
2018-Apr-18 19:26N 43°34' E 010°18'0 0.0
2018-Apr-18 18:59N 43°34' E 010°18'0 0.0
2018-Apr-18 18:29N 43°34' E 010°18'0 0.1
2018-Apr-18 17:59N 43°34' E 010°18'0 0.1
2018-Apr-18 17:29N 43°34' E 010°18'0 0.0
2018-Apr-18 16:56N 43°34' E 010°18'0 0.0
2018-Apr-18 16:29N 43°34' E 010°18'0 0.0
2018-Apr-18 15:59N 43°34' E 010°18'0 0.0
2018-Apr-18 15:29N 43°34' E 010°18'0 0.0
2018-Apr-18 14:56N 43°34' E 010°18'0 0.0
2018-Apr-18 14:29N 43°34' E 010°18'0 0.0
2018-Apr-18 13:59N 43°34' E 010°18'0 0.0
2018-Apr-18 13:29N 43°34' E 010°18'0 0.0
2018-Apr-18 12:59N 43°34' E 010°18'0 0.0
2018-Apr-18 12:29N 43°34' E 010°18'0 0.0
2018-Apr-18 11:59N 43°34' E 010°18'0 0.0
2018-Apr-18 11:26N 43°34' E 010°18'0 0.0
2018-Apr-18 10:59N 43°34' E 010°18'0 0.0
2018-Apr-18 10:29N 43°34' E 010°18'0 0.0
2018-Apr-18 09:59N 43°34' E 010°18'0 0.0
2018-Apr-18 09:29N 43°34' E 010°18'0 0.0
2018-Apr-18 08:59N 43°34' E 010°18'0 0.0
2018-Apr-18 08:29N 43°34' E 010°18'0 0.0
2018-Apr-18 08:01N 43°34' E 010°18'0 0.0
2018-Apr-18 07:31N 43°34' E 010°18'0 0.0
2018-Apr-18 07:00N 43°34' E 010°18'0 0.0
2018-Apr-18 06:30N 43°34' E 010°18'0 0.0
2018-Apr-18 06:01N 43°34' E 010°18'0 0.0
2018-Apr-18 05:30N 43°34' E 010°18'2 3.5
2018-Apr-18 05:00N 43°33' E 010°17'4 8.7
2018-Apr-18 04:30N 43°30' E 010°14'3 6.8
2018-Apr-18 04:00N 43°27' E 010°10'3 6.7
2018-Apr-18 03:30N 43°30' E 010°06'918.3
2018-Apr-18 03:00N 43°33' E 009°54'919.0
2018-Apr-18 02:30N 43°37' E 009°43'918.6
2018-Apr-18 02:00N 43°42' E 009°32'918.6
2018-Apr-18 01:30N 43°48' E 009°22'918.4
2018-Apr-18 01:00N 43°53' E 009°11'918.8
2018-Apr-18 00:30N 43°59' E 009°01'1019.5
2018-Apr-18 00:00N 44°05' E 008°50'1019.5
2018-Apr-17 23:30N 44°10' E 008°39'918.7
2018-Apr-17 23:00N 44°16' E 008°29'1 2.4
2018-Apr-17 22:30N 44°16' E 008°27'0 0.0
2018-Apr-17 22:00N 44°16' E 008°27'0 0.0
2018-Apr-17 21:30N 44°16' E 008°27'0 0.0
2018-Apr-17 21:00N 44°16' E 008°27'0 0.0
2018-Apr-17 20:30N 44°16' E 008°27'0 0.0
2018-Apr-17 20:00N 44°16' E 008°27'0 0.0
2018-Apr-17 19:30N 44°16' E 008°27'0 0.0
2018-Apr-17 19:00N 44°16' E 008°27'0 0.0
2018-Apr-17 18:30N 44°16' E 008°27'0 0.0
2018-Apr-17 18:00N 44°16' E 008°27'0 0.0
2018-Apr-17 17:30N 44°16' E 008°27'0 0.0
2018-Apr-17 17:00N 44°16' E 008°27'0 0.0
2018-Apr-17 16:30N 44°16' E 008°27'0 0.0
2018-Apr-17 16:00N 44°16' E 008°27'0 0.0
2018-Apr-17 15:30N 44°16' E 008°27'0 0.0
2018-Apr-17 15:00N 44°16' E 008°27'0 0.0
2018-Apr-17 14:30N 44°16' E 008°27'0 0.0
2018-Apr-17 14:00N 44°16' E 008°27'0 0.0
2018-Apr-17 13:30N 44°16' E 008°27'0 0.0
2018-Apr-17 13:00N 44°16' E 008°27'0 0.0
2018-Apr-17 12:30N 44°16' E 008°27'0 0.0
2018-Apr-17 12:00N 44°16' E 008°27'0 0.0
2018-Apr-17 11:30N 44°16' E 008°27'0 0.0
2018-Apr-17 11:00N 44°16' E 008°27'0 0.0
2018-Apr-17 10:30N 44°16' E 008°27'0 0.0
2018-Apr-17 10:00N 44°16' E 008°27'0 0.0
2018-Apr-17 09:30N 44°16' E 008°27'0 0.0
2018-Apr-17 09:00N 44°16' E 008°27'0 0.0
2018-Apr-17 08:30N 44°16' E 008°27'0 0.0
2018-Apr-17 08:00N 44°16' E 008°27'0 0.0
2018-Apr-17 07:30N 44°16' E 008°27'0 0.0
2018-Apr-17 07:00N 44°16' E 008°27'0 0.0
2018-Apr-17 06:30N 44°16' E 008°27'0 0.0
2018-Apr-17 05:57N 44°16' E 008°27'0 0.0
2018-Apr-17 05:30N 44°16' E 008°27'0 0.2
2018-Apr-17 05:00N 44°16' E 008°27'1 2.2
2018-Apr-17 04:30N 44°16' E 008°29'3 6.3
2018-Apr-17 04:00N 44°14' E 008°32'5 9.1
2018-Apr-17 03:30N 44°09' E 008°32'2 4.5
2018-Apr-17 03:00N 44°07' E 008°30'0 0.5
2018-Apr-17 02:30N 44°07' E 008°30'0 0.4
2018-Apr-17 02:00N 44°08' E 008°31'0 0.4
2018-Apr-17 01:30N 44°08' E 008°31'0 0.3
2018-Apr-17 01:00N 44°08' E 008°31'5 9.3
2018-Apr-17 00:30N 44°04' E 008°28'917.1
2018-Apr-17 00:01N 43°56' E 008°23'816.8
2018-Apr-16 23:30N 43°49' E 008°17'917.6
2018-Apr-16 23:00N 43°42' E 008°09'918.1
2018-Apr-16 22:30N 43°37' E 007°58'918.4
2018-Apr-16 22:00N 43°32' E 007°48'918.9
2018-Apr-16 21:30N 43°27' E 007°37'918.9
2018-Apr-16 21:01N 43°21' E 007°27'918.4
2018-Apr-16 20:30N 43°15' E 007°17'918.4
2018-Apr-16 20:00N 43°09' E 007°07'918.8
2018-Apr-16 19:31N 43°03' E 006°57'918.9
2018-Apr-16 19:00N 42°58' E 006°47'22118.9
2018-Apr-16 07:20N 40°32' E 003°04'1618.7
2018-Apr-16 06:27N 40°21' E 002°48'919.1
2018-Apr-16 05:59N 40°15' E 002°40'16319.2
2018-Apr-15 21:31N 38°21' E 000°10'118.8
2018-Apr-15 21:29N 38°20' E 000°10'1719.2
2018-Apr-15 20:35N 38°06' W 000°03'219.3
2018-Apr-15 20:30N 38°05' W 000°04'2419.4
2018-Apr-15 19:17N 37°45' W 000°21'519.7
2018-Apr-15 19:00N 37°41' W 000°25'1019.2
2018-Apr-15 18:30N 37°33' W 000°32'1019.5
2018-Apr-15 18:00N 37°26' W 000°41'1019.5
2018-Apr-15 17:30N 37°20' W 000°50'1019.1
2018-Apr-15 17:00N 37°13' W 000°59'2619.2
2018-Apr-15 15:40N 36°55' W 001°22'18519.1
2018-Apr-15 05:59N 36°02' W 005°02'1019.8
2018-Apr-15 05:30N 35°60' W 005°13'1121.6
2018-Apr-15 05:01N 35°57' W 005°26'1222.8
2018-Apr-15 04:29N 35°54' W 005°40'  
Track history (hours):
 
Tides and Currents Weather Stations Pressure Air Temp Water Temp Dewpoint Dewpoint Depression Visibility Wind Speed Wind Dir Waves Ship Positions

Cap Portland

Last reported at 2018-Apr-24 02:39 UTC. Time now 2018-Apr-24 16:36 UTC.
Position N 36°51' E 000°00'.

Length 186 m; beam 30 m; draft 11.3 m.

Type: Ship (hazmat cat A). MMSI: 636016646.

Date/timePositionNaut miles runAvg speedWind from/ knotsBaromVisibWave heightAir tempDewpointWater temp
2018-Apr-24 02:39N 36°51' E 000°00'215.2
2018-Apr-24 02:30N 36°51' E 000°03'2415.5
2018-Apr-24 00:58N 36°57' E 000°32'816.1
2018-Apr-24 00:28N 36°59' E 000°41'816.4
2018-Apr-24 00:00N 37°01' E 000°51'816.4
2018-Apr-23 23:30N 37°02' E 001°01'816.2
2018-Apr-23 23:00N 37°04' E 001°11'916.3
2018-Apr-23 22:26N 37°06' E 001°22'1416.2
2018-Apr-23 21:35N 37°10' E 001°39'116.2
2018-Apr-23 21:31N 37°10' E 001°40'816.2
2018-Apr-23 21:01N 37°12' E 001°50'1916.2
2018-Apr-23 19:51N 37°16' E 002°13'1116.6
2018-Apr-23 19:12N 37°19' E 002°26'316.5
2018-Apr-23 19:01N 37°19' E 002°30'816.5
2018-Apr-23 18:31N 37°21' E 002°40'916.5
2018-Apr-23 17:59N 37°23' E 002°51'816.5
2018-Apr-23 17:30N 37°25' E 003°01'816.4
2018-Apr-23 17:00N 37°27' E 003°11'816.4
2018-Apr-23 16:30N 37°29' E 003°21'916.5
2018-Apr-23 15:59N 37°31' E 003°31'816.6
2018-Apr-23 15:30N 37°33' E 003°41'916.3
2018-Apr-23 14:58N 37°35' E 003°52'816.3
2018-Apr-23 14:29N 37°36' E 004°01'1116.2
2018-Apr-23 13:49N 37°40' E 004°14'816.0
2018-Apr-23 13:21N 37°41' E 004°24'816.1
2018-Apr-23 12:52N 37°42' E 004°33'716.2
2018-Apr-23 12:28N 37°44' E 004°41'816.3
2018-Apr-23 12:00N 37°46' E 004°51'1116.1
2018-Apr-23 11:18N 37°48' E 005°05'515.8
2018-Apr-23 11:00N 37°49' E 005°10'16016.0
2018-Apr-23 01:02N 38°26' E 008°28'216.7
2018-Apr-23 00:56N 38°27' E 008°30'716.7
2018-Apr-23 00:30N 38°28' E 008°39'816.3
2018-Apr-23 00:00N 38°30' E 008°49'816.4
2018-Apr-22 23:30N 38°32' E 008°59'816.6
2018-Apr-22 22:59N 38°35' E 009°09'816.2
2018-Apr-22 22:31N 38°39' E 009°18'816.3
2018-Apr-22 22:01N 38°42' E 009°28'816.2
2018-Apr-22 21:31N 38°45' E 009°37'816.0
2018-Apr-22 21:00N 38°49' E 009°47'816.0
2018-Apr-22 20:30N 38°52' E 009°56'6916.2
2018-Apr-22 16:13N 39°22' E 011°17'516.1
2018-Apr-22 15:56N 39°24' E 011°22'716.0
2018-Apr-22 15:31N 39°26' E 011°30'815.9
2018-Apr-22 14:59N 39°30' E 011°40'9216.5
2018-Apr-22 09:24N 40°09' E 013°29'816.4
2018-Apr-22 08:55N 40°12' E 013°38'2316.6
2018-Apr-22 07:31N 40°22' E 014°06'816.7
2018-Apr-22 07:01N 40°26' E 014°16'816.9
2018-Apr-22 06:31N 40°29' E 014°26'917.0
2018-Apr-22 06:00N 40°33' E 014°36'5 0.3
2018-Apr-21 15:38N 40°36' E 014°41'212.5
2018-Apr-21 15:27N 40°35' E 014°39'714.3
2018-Apr-21 14:57N 40°33' E 014°30'714.5
2018-Apr-21 14:30N 40°32' E 014°21'611.7
2018-Apr-21 14:00N 40°36' E 014°16'713.8
2018-Apr-21 13:30N 40°43' E 014°17'612.4
2018-Apr-21 13:00N 40°50' E 014°17'1 1.8
2018-Apr-21 12:29N 40°50' E 014°17'0 0.0
2018-Apr-21 11:59N 40°50' E 014°17'0 0.0
2018-Apr-21 11:29N 40°50' E 014°17'0 0.0
2018-Apr-21 10:59N 40°50' E 014°17'0 0.0
2018-Apr-21 10:29N 40°50' E 014°17'0 0.0
2018-Apr-21 09:56N 40°50' E 014°17'0 0.0
2018-Apr-21 09:29N 40°50' E 014°17'0 0.0
2018-Apr-21 08:53N 40°50' E 014°17'0 0.0
2018-Apr-21 08:23N 40°50' E 014°17'0 0.0
2018-Apr-21 07:53N 40°50' E 014°17'0 0.0
2018-Apr-21 07:23N 40°50' E 014°17'0 0.0
2018-Apr-21 06:53N 40°50' E 014°17'0 0.0
2018-Apr-21 06:26N 40°50' E 014°17'0 0.0
2018-Apr-21 05:53N 40°50' E 014°17'0 0.0
2018-Apr-21 05:26N 40°50' E 014°17'0 0.0
2018-Apr-21 05:00N 40°50' E 014°17'2 3.3
2018-Apr-21 04:30N 40°49' E 014°17'2 4.5
2018-Apr-21 04:00N 40°47' E 014°17'5 9.5
2018-Apr-21 03:30N 40°44' E 014°12'5 9.8
2018-Apr-21 03:00N 40°41' E 014°07'510.8
2018-Apr-21 02:30N 40°38' E 014°01'510.5
2018-Apr-21 02:00N 40°37' E 013°54'510.2
2018-Apr-21 01:30N 40°37' E 013°47'510.4
2018-Apr-21 01:00N 40°38' E 013°41'510.5
2018-Apr-21 00:30N 40°40' E 013°34'510.7
2018-Apr-21 00:00N 40°41' E 013°27'510.4
2018-Apr-20 23:30N 40°43' E 013°21'710.5
2018-Apr-20 22:49N 40°44' E 013°11'510.8
2018-Apr-20 22:21N 40°46' E 013°05'2710.0
2018-Apr-20 19:37N 41°01' E 012°35'310.5
2018-Apr-20 19:22N 41°04' E 012°33'410.7
2018-Apr-20 19:00N 41°07' E 012°31'152 3.9
2018-Apr-19 04:30N 42°47' E 009°58'1019.4
2018-Apr-19 04:00N 42°57' E 010°02'1019.6
2018-Apr-19 03:30N 43°06' E 010°04'1019.6
2018-Apr-19 03:00N 43°16' E 010°08'1019.5
2018-Apr-19 02:30N 43°25' E 010°10'714.5
2018-Apr-19 02:01N 43°32' E 010°15'3 6.4
2018-Apr-19 01:31N 43°34' E 010°18'1 1.0
2018-Apr-19 00:59N 43°34' E 010°18'0 0.0
2018-Apr-19 00:29N 43°34' E 010°18'0 0.1
2018-Apr-18 23:59N 43°35' E 010°18'0 0.1
2018-Apr-18 23:29N 43°34' E 010°18'0 0.0
2018-Apr-18 22:59N 43°34' E 010°18'0 0.0
2018-Apr-18 22:26N 43°34' E 010°18'0 0.0
2018-Apr-18 21:59N 43°34' E 010°18'0 0.0
2018-Apr-18 21:20N 43°34' E 010°18'0 0.0
2018-Apr-18 20:56N 43°34' E 010°18'0 0.0
2018-Apr-18 20:29N 43°34' E 010°18'0 0.0
2018-Apr-18 19:59N 43°34' E 010°18'0 0.0
2018-Apr-18 19:26N 43°34' E 010°18'0 0.0
2018-Apr-18 18:59N 43°34' E 010°18'0 0.0
2018-Apr-18 18:29N 43°34' E 010°18'0 0.1
2018-Apr-18 17:59N 43°34' E 010°18'0 0.1
2018-Apr-18 17:29N 43°34' E 010°18'0 0.0
2018-Apr-18 16:56N 43°34' E 010°18'0 0.0
2018-Apr-18 16:29N 43°34' E 010°18'0 0.0
2018-Apr-18 15:59N 43°34' E 010°18'0 0.0
2018-Apr-18 15:29N 43°34' E 010°18'0 0.0
2018-Apr-18 14:56N 43°34' E 010°18'0 0.0
2018-Apr-18 14:29N 43°34' E 010°18'0 0.0
2018-Apr-18 13:59N 43°34' E 010°18'0 0.0
2018-Apr-18 13:29N 43°34' E 010°18'0 0.0
2018-Apr-18 12:59N 43°34' E 010°18'0 0.0
2018-Apr-18 12:29N 43°34' E 010°18'0 0.0
2018-Apr-18 11:59N 43°34' E 010°18'0 0.0
2018-Apr-18 11:26N 43°34' E 010°18'0 0.0
2018-Apr-18 10:59N 43°34' E 010°18'0 0.0
2018-Apr-18 10:29N 43°34' E 010°18'0 0.0
2018-Apr-18 09:59N 43°34' E 010°18'0 0.0
2018-Apr-18 09:29N 43°34' E 010°18'0 0.0
2018-Apr-18 08:59N 43°34' E 010°18'0 0.0
2018-Apr-18 08:29N 43°34' E 010°18'0 0.0
2018-Apr-18 08:01N 43°34' E 010°18'0 0.0
2018-Apr-18 07:31N 43°34' E 010°18'0 0.0
2018-Apr-18 07:00N 43°34' E 010°18'0 0.0
2018-Apr-18 06:30N 43°34' E 010°18'0 0.0
2018-Apr-18 06:01N 43°34' E 010°18'0 0.0
2018-Apr-18 05:30N 43°34' E 010°18'2 3.5
2018-Apr-18 05:00N 43°33' E 010°17'4 8.7
2018-Apr-18 04:30N 43°30' E 010°14'3 6.8
2018-Apr-18 04:00N 43°27' E 010°10'3 6.7
2018-Apr-18 03:30N 43°30' E 010°06'918.3
2018-Apr-18 03:00N 43°33' E 009°54'919.0
2018-Apr-18 02:30N 43°37' E 009°43'918.6
2018-Apr-18 02:00N 43°42' E 009°32'918.6
2018-Apr-18 01:30N 43°48' E 009°22'918.4
2018-Apr-18 01:00N 43°53' E 009°11'918.8
2018-Apr-18 00:30N 43°59' E 009°01'1019.5
2018-Apr-18 00:00N 44°05' E 008°50'1019.5
2018-Apr-17 23:30N 44°10' E 008°39'918.7
2018-Apr-17 23:00N 44°16' E 008°29'1 2.4
2018-Apr-17 22:30N 44°16' E 008°27'0 0.0
2018-Apr-17 22:00N 44°16' E 008°27'0 0.0
2018-Apr-17 21:30N 44°16' E 008°27'0 0.0
2018-Apr-17 21:00N 44°16' E 008°27'0 0.0
2018-Apr-17 20:30N 44°16' E 008°27'0 0.0
2018-Apr-17 20:00N 44°16' E 008°27'0 0.0
2018-Apr-17 19:30N 44°16' E 008°27'0 0.0
2018-Apr-17 19:00N 44°16' E 008°27'0 0.0
2018-Apr-17 18:30N 44°16' E 008°27'0 0.0
2018-Apr-17 18:00N 44°16' E 008°27'0 0.0
2018-Apr-17 17:30N 44°16' E 008°27'0 0.0
2018-Apr-17 17:00N 44°16' E 008°27'0 0.0
2018-Apr-17 16:30N 44°16' E 008°27'0 0.0
2018-Apr-17 16:00N 44°16' E 008°27'0 0.0
2018-Apr-17 15:30N 44°16' E 008°27'0 0.0
2018-Apr-17 15:00N 44°16' E 008°27'0 0.0
2018-Apr-17 14:30N 44°16' E 008°27'0 0.0
2018-Apr-17 14:00N 44°16' E 008°27'0 0.0
2018-Apr-17 13:30N 44°16' E 008°27'0 0.0
2018-Apr-17 13:00N 44°16' E 008°27'0 0.0
2018-Apr-17 12:30N 44°16' E 008°27'0 0.0
2018-Apr-17 12:00N 44°16' E 008°27'0 0.0
2018-Apr-17 11:30N 44°16' E 008°27'0 0.0
2018-Apr-17 11:00N 44°16' E 008°27'0 0.0
2018-Apr-17 10:30N 44°16' E 008°27'0 0.0
2018-Apr-17 10:00N 44°16' E 008°27'0 0.0
2018-Apr-17 09:30N 44°16' E 008°27'0 0.0
2018-Apr-17 09:00N 44°16' E 008°27'0 0.0
2018-Apr-17 08:30N 44°16' E 008°27'0 0.0
2018-Apr-17 08:00N 44°16' E 008°27'0 0.0
2018-Apr-17 07:30N 44°16' E 008°27'0 0.0
2018-Apr-17 07:00N 44°16' E 008°27'0 0.0
2018-Apr-17 06:30N 44°16' E 008°27'0 0.0
2018-Apr-17 05:57N 44°16' E 008°27'0 0.0
2018-Apr-17 05:30N 44°16' E 008°27'0 0.2
2018-Apr-17 05:00N 44°16' E 008°27'1 2.2
2018-Apr-17 04:30N 44°16' E 008°29'3 6.3
2018-Apr-17 04:00N 44°14' E 008°32'5 9.1
2018-Apr-17 03:30N 44°09' E 008°32'2 4.5
2018-Apr-17 03:00N 44°07' E 008°30'0 0.5
2018-Apr-17 02:30N 44°07' E 008°30'0 0.4
2018-Apr-17 02:00N 44°08' E 008°31'0 0.4
2018-Apr-17 01:30N 44°08' E 008°31'0 0.3
2018-Apr-17 01:00N 44°08' E 008°31'5 9.3
2018-Apr-17 00:30N 44°04' E 008°28'917.1
2018-Apr-17 00:01N 43°56' E 008°23'816.8
2018-Apr-16 23:30N 43°49' E 008°17'917.6
2018-Apr-16 23:00N 43°42' E 008°09'918.1
2018-Apr-16 22:30N 43°37' E 007°58'918.4
2018-Apr-16 22:00N 43°32' E 007°48'918.9
2018-Apr-16 21:30N 43°27' E 007°37'918.9
2018-Apr-16 21:01N 43°21' E 007°27'918.4
2018-Apr-16 20:30N 43°15' E 007°17'918.4
2018-Apr-16 20:00N 43°09' E 007°07'918.8
2018-Apr-16 19:31N 43°03' E 006°57'918.9
2018-Apr-16 19:00N 42°58' E 006°47'22118.9
2018-Apr-16 07:20N 40°32' E 003°04'1618.7
2018-Apr-16 06:27N 40°21' E 002°48'919.1
2018-Apr-16 05:59N 40°15' E 002°40'16319.2
2018-Apr-15 21:31N 38°21' E 000°10'118.8
2018-Apr-15 21:29N 38°20' E 000°10'1719.2
2018-Apr-15 20:35N 38°06' W 000°03'219.3
2018-Apr-15 20:30N 38°05' W 000°04'2419.4
2018-Apr-15 19:17N 37°45' W 000°21'519.7
2018-Apr-15 19:00N 37°41' W 000°25'1019.2
2018-Apr-15 18:30N 37°33' W 000°32'1019.5
2018-Apr-15 18:00N 37°26' W 000°41'1019.5
2018-Apr-15 17:30N 37°20' W 000°50'1019.1
2018-Apr-15 17:00N 37°13' W 000°59'2619.2
2018-Apr-15 15:40N 36°55' W 001°22'18519.1
2018-Apr-15 05:59N 36°02' W 005°02'1019.8
2018-Apr-15 05:30N 35°60' W 005°13'1121.6
2018-Apr-15 05:01N 35°57' W 005°26'1222.8
2018-Apr-15 04:29N 35°54' W 005°40'  

Dump ship's entire track history